createdAt,value
2018-05-14T00:01:56.407Z,143.40
2018-05-14T00:04:26.489Z,156.50
2018-05-14T00:06:55.553Z,146.53
2018-05-14T00:09:23.865Z,158.23
2018-05-14T00:11:52.136Z,153.30
2018-05-14T00:14:20.532Z,149.97
2018-05-14T00:16:49.099Z,165.80
2018-05-14T00:19:17.514Z,178.93
2018-05-14T00:21:45.823Z,166.77
2018-05-14T00:24:14.111Z,170.23
2018-05-14T00:26:42.435Z,180.10
2018-05-14T00:29:10.872Z,185.37
2018-05-14T00:31:39.941Z,177.17
2018-05-14T00:34:09.110Z,190.73
2018-05-14T00:36:37.500Z,187.27
2018-05-14T00:39:06.008Z,209.82
2018-05-14T00:41:34.380Z,194.93
2018-05-14T00:44:03.817Z,200.53
2018-05-14T00:46:33.130Z,206.03
2018-05-14T00:49:01.426Z,216.10
2018-05-14T00:51:29.735Z,220.70
2018-05-14T00:53:58.121Z,210.47
2018-05-14T00:56:26.420Z,201.33
2018-05-14T00:58:54.711Z,198.90
2018-05-14T01:01:22.991Z,208.30
2018-05-14T01:03:51.360Z,203.10
2018-05-14T01:06:19.647Z,200.30
2018-05-14T01:08:47.930Z,185.63
2018-05-14T01:11:17.093Z,192.83
2018-05-14T01:13:45.465Z,186.63
2018-05-14T01:16:13.744Z,180.67
2018-05-14T01:18:42.058Z,186.23
2018-05-14T01:21:10.445Z,189.87
2018-05-14T01:23:38.874Z,199.37
2018-05-14T01:26:07.188Z,184.80
2018-05-14T01:28:36.360Z,190.70
2018-05-14T01:31:05.518Z,176.57
2018-05-14T01:33:33.904Z,198.27
2018-05-14T01:36:02.959Z,191.97
2018-05-14T01:38:31.303Z,193.37
2018-05-14T01:40:59.696Z,195.53
2018-05-14T01:43:28.860Z,201.37
2018-05-14T01:45:57.214Z,224.13
2018-05-14T01:48:25.504Z,204.53
2018-05-14T01:50:53.921Z,224.43
2018-05-14T01:53:23.097Z,233.03
2018-05-14T01:55:52.204Z,214.83
2018-05-14T01:58:20.451Z,224.07
2018-05-14T02:00:50.747Z,240.60
2018-05-14T02:03:19.023Z,216.93
2018-05-14T02:05:47.324Z,219.40
2018-05-14T02:08:15.613Z,206.93
2018-05-14T02:10:43.951Z,197.90
2018-05-14T02:13:12.229Z,214.90
2018-05-14T02:15:40.575Z,215.63
2018-05-14T02:18:09.686Z,218.50
2018-05-14T02:20:37.993Z,201.20
2018-05-14T02:23:06.296Z,218.97
2018-05-14T02:25:34.780Z,209.53
2018-05-14T02:28:03.190Z,214.67
2018-05-14T02:30:31.543Z,215.43
2018-05-14T02:33:00.280Z,201.30
2018-05-14T02:35:29.714Z,208.90
2018-05-14T02:37:58.345Z,216.40
2018-05-14T02:40:28.406Z,201.40
2018-05-14T02:42:56.692Z,197.57
2018-05-14T02:45:25.124Z,219.03
2018-05-14T02:47:53.427Z,212.27
2018-05-14T02:50:23.304Z,210.60
2018-05-14T02:52:51.691Z,217.83
2018-05-14T02:55:19.986Z,201.27
2018-05-14T02:57:48.381Z,204.90
2018-05-14T03:00:16.656Z,202.83
2018-05-14T03:02:45.054Z,193.10
2018-05-14T03:05:13.345Z,167.90
2018-05-14T03:07:41.635Z,172.80
2018-05-14T03:10:10.691Z,168.73
2018-05-14T03:12:38.972Z,153.77
2018-05-14T03:15:07.328Z,144.43
2018-05-14T03:17:35.823Z,145.80
2018-05-14T03:20:04.937Z,132.35
2018-05-14T03:22:33.377Z,125.27
2018-05-14T03:25:01.651Z,112.95
2018-05-14T03:27:29.957Z,105.03
2018-05-14T03:29:58.232Z,91.90
2018-05-14T03:32:26.606Z,82.67
2018-05-14T03:34:54.890Z,90.70
2018-05-14T03:37:23.412Z,87.65
2018-05-14T03:39:51.705Z,91.37
2018-05-14T03:42:20.002Z,90.23
2018-05-14T03:44:48.266Z,92.57
2018-05-14T03:47:17.464Z,101.97
2018-05-14T03:49:45.780Z,107.03
2018-05-14T03:52:14.093Z,105.40
2018-05-14T03:54:43.159Z,117.03
2018-05-14T03:57:11.549Z,115.40
2018-05-14T03:59:57.489Z,114.50
2018-05-14T04:02:43.693Z,124.90
2018-05-14T04:05:19.821Z,150.87
2018-05-14T04:07:48.869Z,150.40
2018-05-14T04:10:17.225Z,147.73
2018-05-14T04:12:46.327Z,145.30
2018-05-14T04:15:15.382Z,159.07
2018-05-14T04:17:43.658Z,147.47
2018-05-14T04:20:12.959Z,146.27
2018-05-14T04:22:41.235Z,162.93
2018-05-14T04:25:10.287Z,149.83
2018-05-14T04:27:38.578Z,163.80
2018-05-14T04:30:06.943Z,161.67
2018-05-14T04:32:35.149Z,154.40
2018-05-14T04:35:03.458Z,164.60
2018-05-14T04:37:31.742Z,160.07
2018-05-14T04:39:59.998Z,150.30
2018-05-14T04:42:28.292Z,149.63
2018-05-14T04:44:57.341Z,152.93
2018-05-14T04:47:25.702Z,142.60
2018-05-14T04:49:54.017Z,157.70
2018-05-14T04:52:22.366Z,161.87
2018-05-14T04:54:51.444Z,149.53
2018-05-14T04:57:19.751Z,161.17
2018-05-14T04:59:48.827Z,166.10
2018-05-14T05:02:17.124Z,163.02
2018-05-14T05:04:45.423Z,149.80
2018-05-14T05:07:13.706Z,152.20
2018-05-14T05:09:42.149Z,149.20
2018-05-14T05:12:11.273Z,144.97
2018-05-14T05:14:39.581Z,146.70
2018-05-14T05:17:07.902Z,156.13
2018-05-14T05:19:36.897Z,144.77
2018-05-14T05:22:05.160Z,139.17
2018-05-14T05:24:33.436Z,146.83
2018-05-14T05:27:01.750Z,151.00
2018-05-14T05:29:30.007Z,144.80
2018-05-14T05:31:58.303Z,146.33
2018-05-14T05:34:26.609Z,146.33
2018-05-14T05:36:54.993Z,150.50
2018-05-14T05:39:23.421Z,154.90
2018-05-14T05:41:51.802Z,148.63
2018-05-14T05:44:20.092Z,157.43
2018-05-14T05:46:48.476Z,150.80
2018-05-14T05:49:16.856Z,148.45
2018-05-14T05:51:45.151Z,145.87
2018-05-14T05:54:15.694Z,143.97
2018-05-14T05:56:45.116Z,159.17
2018-05-14T05:59:13.549Z,147.80
2018-05-14T06:01:41.847Z,149.43
2018-05-14T06:04:10.403Z,152.07
2018-05-14T06:06:38.686Z,138.90
2018-05-14T06:09:07.075Z,157.60
2018-05-14T06:11:35.462Z,149.20
2018-05-14T06:14:03.739Z,158.00
2018-05-14T06:16:32.778Z,152.17
2018-05-14T06:19:01.157Z,164.73
2018-05-14T06:21:29.564Z,149.00
2018-05-14T06:23:58.654Z,150.00
2018-05-14T06:26:26.968Z,154.10
2018-05-14T06:28:55.328Z,144.13
2018-05-14T06:31:23.631Z,147.40
2018-05-14T06:33:52.023Z,140.47
2018-05-14T06:36:20.317Z,141.87
2018-05-14T06:38:48.575Z,145.30
2018-05-14T06:41:17.627Z,140.40
2018-05-14T06:43:45.901Z,135.57
2018-05-14T06:46:14.294Z,138.40
2018-05-14T06:48:42.634Z,129.00
2018-05-14T06:51:11.800Z,122.07
2018-05-14T06:53:40.194Z,123.10
2018-05-14T06:56:08.581Z,118.80
2018-05-14T06:58:36.869Z,120.33
2018-05-14T07:01:05.239Z,108.90
2018-05-14T07:03:34.311Z,106.37
2018-05-14T07:06:02.576Z,98.93
2018-05-14T07:08:30.855Z,106.73
2018-05-14T07:10:59.150Z,104.73
2018-05-14T07:13:27.420Z,96.00
2018-05-14T07:15:56.649Z,89.30
2018-05-14T07:18:25.739Z,90.37
2018-05-14T07:20:54.867Z,89.43
2018-05-14T07:23:23.188Z,86.20
2018-05-14T07:25:52.436Z,82.33
2018-05-14T07:28:20.811Z,81.17
2018-05-14T07:30:49.069Z,78.67
2018-05-14T07:33:17.454Z,75.67
2018-05-14T07:35:45.736Z,75.13
2018-05-14T07:38:14.849Z,73.23
2018-05-14T07:40:43.248Z,72.50
2018-05-14T07:43:11.513Z,68.73
2018-05-14T07:45:40.540Z,72.65
2018-05-14T07:48:08.813Z,64.50
2018-05-14T07:50:37.839Z,67.67
2018-05-14T07:53:06.121Z,61.67
2018-05-14T07:55:35.183Z,58.70
2018-05-14T07:58:03.455Z,57.40
2018-05-14T08:00:31.720Z,59.57
2018-05-14T08:03:00.025Z,58.77
2018-05-14T08:05:28.302Z,60.43
2018-05-14T08:07:56.577Z,59.10
2018-05-14T08:10:25.680Z,58.97
2018-05-14T08:12:54.816Z,63.07
2018-05-14T08:15:23.197Z,57.00
2018-05-14T08:17:52.247Z,62.77
2018-05-14T08:20:20.518Z,54.17
2018-05-14T08:22:48.793Z,59.73
2018-05-14T08:25:17.177Z,55.63
2018-05-14T08:27:45.443Z,48.75
2018-05-14T08:30:14.487Z,44.33
2018-05-14T08:32:42.767Z,42.80
2018-05-14T08:35:11.055Z,41.47
2018-05-14T08:37:39.351Z,42.53
2018-05-14T08:40:08.401Z,41.97
2018-05-14T08:42:36.679Z,41.58
2018-05-14T08:45:05.003Z,44.17
2018-05-14T08:47:33.324Z,45.10
2018-05-14T08:50:02.343Z,47.00
2018-05-14T08:52:30.625Z,44.07
2018-05-14T08:54:59.655Z,43.43
2018-05-14T08:57:27.912Z,43.57
2018-05-14T08:59:56.970Z,44.50
2018-05-14T09:02:25.267Z,46.07
2018-05-14T09:04:53.719Z,44.47
2018-05-14T09:07:23.055Z,42.37
2018-05-14T09:09:51.364Z,43.00
2018-05-14T09:12:19.653Z,41.17
2018-05-14T09:14:47.938Z,39.23
2018-05-14T09:17:16.312Z,41.37
2018-05-14T09:19:44.690Z,40.77
2018-05-14T09:22:13.016Z,44.00
2018-05-14T09:24:41.373Z,44.07
2018-05-14T09:27:09.635Z,46.80
2018-05-14T09:29:38.693Z,45.23
2018-05-14T09:32:06.986Z,44.03
2018-05-14T09:34:35.274Z,45.97
2018-05-14T09:37:03.638Z,44.50
2018-05-14T09:39:32.699Z,43.50
2018-05-14T09:42:00.997Z,43.30
2018-05-14T09:44:29.261Z,43.53
2018-05-14T09:46:57.628Z,44.93
2018-05-14T09:49:25.914Z,42.00
2018-05-14T09:51:54.210Z,41.17
2018-05-14T09:54:22.499Z,40.57
2018-05-14T09:56:50.777Z,39.27
2018-05-14T09:59:19.027Z,37.67
2018-05-14T10:01:47.327Z,38.53
2018-05-14T10:04:15.646Z,38.93
2018-05-14T10:06:44.864Z,38.90
2018-05-14T10:09:13.159Z,37.20
2018-05-14T10:11:41.430Z,35.73
2018-05-14T10:14:10.552Z,36.40
2018-05-14T10:16:38.803Z,37.20
2018-05-14T10:19:07.071Z,36.03
2018-05-14T10:21:35.455Z,33.60
2018-05-14T10:24:03.650Z,36.67
2018-05-14T10:26:31.903Z,36.50
2018-05-14T10:29:00.187Z,35.43
2018-05-14T10:31:29.231Z,33.33
2018-05-14T10:33:57.492Z,32.67
2018-05-14T10:36:25.897Z,32.10
2018-05-14T10:38:54.196Z,33.27
2018-05-14T10:41:22.550Z,31.77
2018-05-14T10:43:50.887Z,31.70
2018-05-14T10:46:19.146Z,31.53
2018-05-14T10:48:47.426Z,31.37
2018-05-14T10:51:16.457Z,31.00
2018-05-14T10:53:44.810Z,30.63
2018-05-14T10:56:13.076Z,27.27
2018-05-14T10:58:41.392Z,27.93
2018-05-14T11:01:09.722Z,28.37
2018-05-14T11:03:37.980Z,29.20
2018-05-14T11:06:07.014Z,28.03
2018-05-14T11:08:35.292Z,28.10
2018-05-14T11:11:04.366Z,26.90
2018-05-14T11:13:32.615Z,26.57
2018-05-14T11:16:00.904Z,26.07
2018-05-14T11:18:29.167Z,27.13
2018-05-14T11:20:58.193Z,25.27
2018-05-14T11:23:27.479Z,25.97
2018-05-14T11:25:56.541Z,26.10
2018-05-14T11:28:24.858Z,27.50
2018-05-14T11:30:53.153Z,25.13
2018-05-14T11:33:21.431Z,24.77
2018-05-14T11:35:49.774Z,23.73
2018-05-14T11:38:18.060Z,21.90
2018-05-14T11:40:47.095Z,21.57
2018-05-14T11:43:15.392Z,23.10
2018-05-14T11:45:43.765Z,22.30
2018-05-14T11:48:12.040Z,20.97
2018-05-14T11:50:41.178Z,18.87
2018-05-14T11:53:09.422Z,20.53
2018-05-14T11:55:37.685Z,19.90
2018-05-14T11:58:05.955Z,21.20
2018-05-14T12:00:34.483Z,19.00
2018-05-14T12:03:02.869Z,20.47
2018-05-14T12:05:31.090Z,19.40
2018-05-14T12:08:00.187Z,23.38
2018-05-14T12:10:29.300Z,17.00
2018-05-14T12:12:57.580Z,18.43
2018-05-14T12:15:27.451Z,17.03
2018-05-14T12:17:55.836Z,17.77
2018-05-14T12:20:24.231Z,18.10
2018-05-14T12:22:52.541Z,16.83
2018-05-14T12:25:20.819Z,14.37
2018-05-14T12:27:49.106Z,16.37
2018-05-14T12:30:17.384Z,15.20
2018-05-14T12:32:45.644Z,16.10
2018-05-14T12:35:13.918Z,18.27
2018-05-14T12:37:42.199Z,17.20
2018-05-14T12:40:10.467Z,17.80
2018-05-14T12:42:38.841Z,17.30
2018-05-14T12:45:07.895Z,16.00
2018-05-14T12:47:36.159Z,16.30
2018-05-14T12:50:04.437Z,16.90
2018-05-14T12:52:32.735Z,16.13
2018-05-14T12:55:01.113Z,14.90
2018-05-14T12:57:29.393Z,15.63
2018-05-14T12:59:58.459Z,14.70
2018-05-14T13:02:26.914Z,14.80
2018-05-14T13:04:55.220Z,14.90
2018-05-14T13:07:23.515Z,14.53
2018-05-14T13:09:52.396Z,13.47
2018-05-14T13:12:20.656Z,12.40
2018-05-14T13:14:48.945Z,12.73
2018-05-14T13:17:18.092Z,11.30
2018-05-14T13:19:46.336Z,12.40
2018-05-14T13:22:14.661Z,11.53
2018-05-14T13:24:43.698Z,11.53
2018-05-14T13:27:11.977Z,12.37
2018-05-14T13:29:40.297Z,10.77
2018-05-14T13:32:08.629Z,10.50
2018-05-14T13:34:36.860Z,10.23
2018-05-14T13:37:05.155Z,11.33
2018-05-14T13:39:33.427Z,10.63
2018-05-14T13:42:01.806Z,11.17
2018-05-14T13:44:30.095Z,10.00
2018-05-14T13:46:59.109Z,9.70
2018-05-14T13:49:27.400Z,9.77
2018-05-14T13:51:55.749Z,8.90
2018-05-14T13:54:24.077Z,8.73
2018-05-14T13:56:52.411Z,8.07
2018-05-14T13:59:20.728Z,8.27
2018-05-14T14:01:49.045Z,7.60
2018-05-14T14:04:18.068Z,8.23
2018-05-14T14:06:46.345Z,6.50
2018-05-14T14:09:14.615Z,6.47
2018-05-14T14:11:43.636Z,7.00
2018-05-14T14:14:11.908Z,7.07
2018-05-14T14:16:40.930Z,6.40
2018-05-14T14:19:09.967Z,10.50
2018-05-14T14:21:38.251Z,7.47
2018-05-14T14:24:06.806Z,7.73
2018-05-14T14:26:35.755Z,11.33
2018-05-14T14:29:04.135Z,7.43
2018-05-14T14:31:32.421Z,7.07
2018-05-14T14:34:00.751Z,8.33
2018-05-14T14:36:29.223Z,7.68
2018-05-14T14:38:57.409Z,6.20
2018-05-14T14:41:25.893Z,7.13
2018-05-14T14:43:54.162Z,7.97
2018-05-14T14:46:22.525Z,6.13
2018-05-14T14:48:50.760Z,6.17
2018-05-14T14:51:19.053Z,7.97
2018-05-14T14:53:47.330Z,6.67
2018-05-14T14:56:16.601Z,5.40
2018-05-14T14:58:44.951Z,5.33
2018-05-14T15:01:13.963Z,9.00
2018-05-14T15:03:42.244Z,7.53
2018-05-14T15:06:10.517Z,7.97
2018-05-14T15:08:39.529Z,5.60
2018-05-14T15:11:08.573Z,8.73
2018-05-14T15:13:36.857Z,5.43
2018-05-14T15:16:05.134Z,7.80
2018-05-14T15:18:34.327Z,6.83
2018-05-14T15:21:03.377Z,4.83
2018-05-14T15:23:31.633Z,5.03
2018-05-14T15:25:59.931Z,5.37
2018-05-14T15:28:28.226Z,5.10
2018-05-14T15:30:56.514Z,8.97
2018-05-14T15:33:24.776Z,5.13
2018-05-14T15:35:53.644Z,5.03
2018-05-14T15:38:21.996Z,4.93
2018-05-14T15:40:50.260Z,6.17
2018-05-14T15:43:18.539Z,8.87
2018-05-14T15:45:46.840Z,4.77
2018-05-14T15:48:15.159Z,6.37
2018-05-14T15:50:43.464Z,5.33
2018-05-14T15:53:11.901Z,4.90
2018-05-14T15:55:40.197Z,4.90
2018-05-14T15:58:08.483Z,5.67
2018-05-14T16:00:36.759Z,5.40
2018-05-14T16:03:05.819Z,6.73
2018-05-14T16:05:34.849Z,5.30
2018-05-14T16:08:03.205Z,5.60
2018-05-14T16:10:31.392Z,4.97
2018-05-14T16:13:00.514Z,5.87
2018-05-14T16:15:29.622Z,6.00
2018-05-14T16:17:57.921Z,5.17
2018-05-14T16:20:26.311Z,4.97
2018-05-14T16:22:54.569Z,5.73
2018-05-14T16:25:22.891Z,5.40
2018-05-14T16:27:51.151Z,4.87
2018-05-14T16:30:20.187Z,7.83
2018-05-14T16:32:48.443Z,8.03
2018-05-14T16:35:16.768Z,5.33
2018-05-14T16:37:45.016Z,5.83
2018-05-14T16:40:13.457Z,6.87
2018-05-14T16:42:41.759Z,5.20
2018-05-14T16:45:10.022Z,5.30
2018-05-14T16:47:39.147Z,5.53
2018-05-14T16:50:07.427Z,5.13
2018-05-14T16:52:36.454Z,6.57
2018-05-14T16:55:04.736Z,5.93
2018-05-14T16:57:33.063Z,7.80
2018-05-14T17:00:01.277Z,4.80
2018-05-14T17:02:29.546Z,7.00
2018-05-14T17:04:57.824Z,5.37
2018-05-14T17:07:26.102Z,5.70
2018-05-14T17:09:54.373Z,11.00
2018-05-14T17:12:22.673Z,5.40
2018-05-14T17:14:50.951Z,6.40
2018-05-14T17:17:19.430Z,5.73
2018-05-14T17:19:47.631Z,6.93
2018-05-14T17:22:15.920Z,7.07
2018-05-14T17:24:44.954Z,8.93
2018-05-14T17:27:13.229Z,7.20
2018-05-14T17:29:41.493Z,6.67
2018-05-14T17:32:10.503Z,7.33
2018-05-14T17:34:39.563Z,6.50
2018-05-14T17:37:07.917Z,6.13
2018-05-14T17:39:37.036Z,5.83
2018-05-14T17:42:05.287Z,5.77
2018-05-14T17:44:33.558Z,8.87
2018-05-14T17:47:01.973Z,7.97
2018-05-14T17:49:30.496Z,5.77
2018-05-14T17:52:00.267Z,8.57
2018-05-14T17:54:29.662Z,5.93
2018-05-14T17:56:58.490Z,6.33
2018-05-14T17:59:27.519Z,16.43
2018-05-14T18:01:56.694Z,6.63
2018-05-14T18:04:25.044Z,9.63
2018-05-14T18:06:53.337Z,7.70
2018-05-14T18:09:21.716Z,10.13
2018-05-14T18:11:51.031Z,8.43
2018-05-14T18:14:21.886Z,6.63
2018-05-14T18:16:51.617Z,8.87
2018-05-14T18:19:21.590Z,5.80
2018-05-14T18:21:50.208Z,7.83
2018-05-14T18:24:18.981Z,6.93
2018-05-14T18:26:49.778Z,8.27
2018-05-14T18:38:30.138Z,9.03
2018-05-14T18:41:01.402Z,8.87
2018-05-14T18:43:32.644Z,6.27
2018-05-14T18:46:01.225Z,6.27
2018-05-14T18:48:29.965Z,6.27
2018-05-14T18:50:59.745Z,7.03
2018-05-14T18:53:28.028Z,6.20
2018-05-14T18:55:56.344Z,6.00
2018-05-14T18:58:24.789Z,7.47
2018-05-14T19:00:53.876Z,10.17
2018-05-14T19:03:22.527Z,7.17
2018-05-14T19:05:50.909Z,8.13
2018-05-14T19:08:20.149Z,8.23
2018-05-14T19:10:53.813Z,6.00
2018-05-14T19:13:22.872Z,6.47
2018-05-14T19:15:56.592Z,7.83
2018-05-14T19:18:24.874Z,5.93
2018-05-14T19:20:53.159Z,6.97
2018-05-14T19:23:26.840Z,6.80
2018-05-14T19:25:55.167Z,9.77
2018-05-14T19:28:28.972Z,6.07
2018-05-14T19:30:57.300Z,6.90
2018-05-14T19:33:30.964Z,6.90
2018-05-14T19:36:02.379Z,6.97
2018-05-14T19:38:30.991Z,8.17
2018-05-14T19:40:59.333Z,7.40
2018-05-14T19:43:27.629Z,8.63
2018-05-14T19:45:55.915Z,6.40
2018-05-14T19:48:24.193Z,8.77
2018-05-14T19:50:53.312Z,8.87
2018-05-14T19:53:21.528Z,5.93
2018-05-14T19:55:49.803Z,6.70
2018-05-14T19:58:18.078Z,7.03
2018-05-14T20:00:47.131Z,8.18
2018-05-14T20:03:15.444Z,6.77
2018-05-14T20:05:43.716Z,6.00
2018-05-14T20:08:11.968Z,6.73
2018-05-14T20:10:40.269Z,7.82
2018-05-14T20:13:09.304Z,7.53
2018-05-14T20:15:37.561Z,8.67
2018-05-14T20:18:06.082Z,7.33
2018-05-14T20:20:34.913Z,9.70
2018-05-14T20:23:12.604Z,7.03
2018-05-14T20:25:42.028Z,7.57
2018-05-14T20:28:11.364Z,7.17
2018-05-14T20:30:40.651Z,9.00
2018-05-14T20:33:09.091Z,6.13
2018-05-14T20:35:38.122Z,8.87
2018-05-14T20:38:07.560Z,7.37
2018-05-14T20:40:35.931Z,7.73
2018-05-14T20:43:04.206Z,8.07
2018-05-14T20:45:33.451Z,6.97
2018-05-14T20:48:03.481Z,6.20
2018-05-14T20:50:34.809Z,6.60
2018-05-14T20:53:03.418Z,7.50
2018-05-14T20:55:33.260Z,7.57
2018-05-14T20:58:01.597Z,8.80
2018-05-14T21:00:29.856Z,8.33
2018-05-14T21:02:58.164Z,8.05
2018-05-14T21:05:28.214Z,7.87
2018-05-14T21:07:58.470Z,7.83
2018-05-14T21:10:28.327Z,10.43
2018-05-14T21:12:58.116Z,7.13
2018-05-14T21:15:27.654Z,8.30
2018-05-14T21:17:57.531Z,7.63
2018-05-14T21:20:26.614Z,7.60
2018-05-14T21:22:56.561Z,7.30
2018-05-14T21:25:26.871Z,8.10
2018-05-14T21:27:55.924Z,8.47
2018-05-14T21:30:25.773Z,8.93
2018-05-14T21:32:54.512Z,8.20
2018-05-14T21:35:23.987Z,7.50
2018-05-14T21:37:52.347Z,9.23
2018-05-14T21:40:20.702Z,7.23
2018-05-14T21:42:49.730Z,6.93
2018-05-14T21:45:18.007Z,7.13
2018-05-14T21:47:46.614Z,8.87
2018-05-14T21:50:14.969Z,7.67
2018-05-14T21:52:43.222Z,8.20
2018-05-14T21:55:11.802Z,7.87
2018-05-14T21:57:40.259Z,8.23
2018-05-14T22:00:10.364Z,10.17
2018-05-14T22:02:38.755Z,6.07
2018-05-14T22:05:07.768Z,6.93
2018-05-14T22:07:36.814Z,8.20
2018-05-14T22:10:05.110Z,5.43
2018-05-14T22:12:33.610Z,7.40
2018-05-14T22:15:01.869Z,7.63
2018-05-14T22:17:30.904Z,6.80
2018-05-14T22:19:59.191Z,6.10
2018-05-14T22:22:27.448Z,6.20
2018-05-14T22:24:55.734Z,7.50
2018-05-14T22:27:23.988Z,6.53
2018-05-14T22:29:52.259Z,7.13
2018-05-14T22:32:20.536Z,10.63
2018-05-14T22:34:48.797Z,9.10
2018-05-14T22:37:17.941Z,7.13
2018-05-14T22:39:46.967Z,10.90
2018-05-14T22:42:15.239Z,6.13
2018-05-14T22:44:43.521Z,6.47
2018-05-14T22:47:12.631Z,7.33
2018-05-14T22:49:41.316Z,7.10
2018-05-14T22:52:10.348Z,7.40
2018-05-14T22:54:38.624Z,7.33
2018-05-14T22:57:07.944Z,9.37
2018-05-14T22:59:37.144Z,9.07
2018-05-14T23:02:06.471Z,7.67
2018-05-14T23:04:34.735Z,8.47
2018-05-14T23:07:03.840Z,9.67
2018-05-14T23:09:32.372Z,7.13
2018-05-14T23:12:01.016Z,10.10
2018-05-14T23:14:29.289Z,8.13
2018-05-14T23:16:58.152Z,6.97
2018-05-14T23:19:28.470Z,8.17
2018-05-14T23:21:59.407Z,8.40
2018-05-14T23:24:27.855Z,6.30
2018-05-14T23:26:56.116Z,8.48
2018-05-14T23:29:24.391Z,8.77
2018-05-14T23:31:52.695Z,8.90
2018-05-14T23:34:20.976Z,9.47
2018-05-14T23:36:49.306Z,9.63
2018-05-14T23:39:17.746Z,7.00
2018-05-14T23:41:46.154Z,9.23
2018-05-14T23:44:16.243Z,8.70
2018-05-14T23:46:44.498Z,8.77
2018-05-14T23:49:12.805Z,9.27
2018-05-14T23:51:41.106Z,9.33
2018-05-14T23:54:09.415Z,13.73
2018-05-14T23:56:37.704Z,6.87
2018-05-14T23:59:06.076Z,9.00
